createdAt,value
2023-02-12T00:01:29.005Z,27.45
2023-02-12T00:03:58.048Z,25.77
2023-02-12T00:06:26.124Z,23.42
2023-02-12T00:08:58.234Z,23.73
2023-02-12T00:11:29.569Z,20.88
2023-02-12T00:13:58.482Z,23.80
2023-02-12T00:16:29.178Z,23.00
2023-02-12T00:18:59.709Z,26.23
2023-02-12T00:21:27.277Z,26.00
2023-02-12T00:23:55.674Z,25.92
2023-02-12T00:26:24.063Z,23.35
2023-02-12T00:28:52.500Z,23.52
2023-02-12T00:31:26.375Z,23.38
2023-02-12T00:33:54.338Z,22.50
2023-02-12T00:36:25.904Z,22.05
2023-02-12T00:38:56.081Z,21.33
2023-02-12T00:41:24.151Z,22.60
2023-02-12T00:43:52.080Z,22.60
2023-02-12T00:46:20.029Z,20.35
2023-02-12T00:48:47.841Z,22.40
2023-02-12T00:51:15.916Z,24.58
2023-02-12T00:53:43.631Z,23.75
2023-02-12T00:56:11.012Z,22.40
2023-02-12T00:58:38.517Z,22.42
2023-02-12T01:01:06.261Z,22.92
2023-02-12T01:03:33.887Z,23.08
2023-02-12T01:06:01.598Z,22.52
2023-02-12T01:08:28.997Z,22.70
2023-02-12T01:11:01.725Z,23.70
2023-02-12T01:13:30.828Z,22.70
2023-02-12T01:16:23.867Z,22.98
2023-02-12T01:18:55.974Z,22.58
2023-02-12T01:21:32.051Z,22.08
2023-02-12T01:23:59.789Z,23.33
2023-02-12T01:26:29.085Z,23.33
2023-02-12T01:29:07.981Z,25.42
2023-02-12T01:31:39.686Z,23.90
2023-02-12T01:34:08.657Z,24.88
2023-02-12T01:36:36.576Z,22.38
2023-02-12T01:39:05.838Z,23.35
2023-02-12T01:41:39.410Z,24.42
2023-02-12T01:44:06.791Z,25.35
2023-02-12T01:46:34.493Z,26.50
2023-02-12T01:49:05.546Z,24.08
2023-02-12T01:51:35.781Z,25.38
2023-02-12T01:54:08.508Z,25.65
2023-02-12T01:56:36.577Z,25.60
2023-02-12T01:59:04.112Z,25.30
2023-02-12T02:01:34.411Z,26.63
2023-02-12T02:04:12.182Z,23.60
2023-02-12T02:06:50.893Z,24.17
2023-02-12T02:09:20.560Z,20.95
2023-02-12T02:12:06.930Z,26.33
2023-02-12T02:14:34.671Z,26.05
2023-02-12T02:17:35.635Z,24.95
2023-02-12T02:20:08.877Z,24.67
2023-02-12T02:22:55.206Z,24.67
2023-02-12T02:25:43.840Z,25.25
2023-02-12T02:28:23.025Z,23.13
2023-02-12T02:31:12.767Z,22.13
2023-02-12T02:33:56.105Z,22.02
2023-02-12T02:36:50.936Z,20.48
2023-02-12T02:39:41.335Z,22.88
2023-02-12T02:42:27.826Z,21.70
2023-02-12T02:45:10.499Z,21.55
2023-02-12T02:47:46.004Z,22.98
2023-02-12T02:50:20.979Z,23.38
2023-02-12T02:53:08.895Z,23.40
2023-02-12T02:55:46.428Z,23.75
2023-02-12T02:58:21.504Z,23.42
2023-02-12T03:01:26.988Z,24.83
2023-02-12T03:04:26.578Z,22.95
2023-02-12T03:07:09.605Z,23.67
2023-02-12T03:09:47.416Z,22.55
2023-02-12T03:12:31.335Z,23.45
2023-02-12T03:15:15.280Z,25.17
2023-02-12T03:17:48.433Z,25.92
2023-02-12T03:20:24.872Z,25.48
2023-02-12T03:23:37.385Z,25.50
2023-02-12T03:26:13.191Z,24.80
2023-02-12T03:28:41.429Z,21.33
2023-02-12T03:31:42.972Z,24.52
2023-02-12T03:34:37.356Z,23.83
2023-02-12T03:37:33.771Z,21.20
2023-02-12T03:40:28.348Z,20.50
2023-02-12T03:43:17.452Z,21.70
2023-02-12T03:46:12.392Z,20.10
2023-02-12T03:48:55.866Z,21.27
2023-02-12T03:51:36.958Z,19.23
2023-02-12T03:54:07.889Z,18.23
2023-02-12T03:56:55.321Z,18.48
2023-02-12T03:59:25.749Z,19.35
2023-02-12T04:01:57.833Z,20.42
2023-02-12T04:04:26.922Z,18.05
2023-02-12T04:06:55.860Z,20.15
2023-02-12T04:09:27.677Z,19.63
2023-02-12T04:12:32.461Z,19.73
2023-02-12T04:15:46.691Z,19.20
2023-02-12T04:18:25.117Z,19.75
2023-02-12T04:21:13.878Z,18.35
2023-02-12T04:23:57.938Z,17.65
2023-02-12T04:26:42.713Z,20.42
2023-02-12T04:29:25.041Z,18.13
2023-02-12T04:32:15.968Z,19.13
2023-02-12T04:34:55.576Z,20.02
2023-02-12T04:37:53.956Z,17.65
2023-02-12T04:40:23.170Z,16.35
2023-02-12T04:42:53.634Z,14.65
2023-02-12T04:45:28.352Z,17.33
2023-02-12T04:47:56.265Z,18.70
2023-02-12T04:50:24.187Z,18.20
2023-02-12T04:52:53.090Z,16.88
2023-02-12T04:55:20.614Z,18.30
2023-02-12T04:57:48.057Z,17.23
2023-02-12T05:00:16.472Z,16.02
2023-02-12T05:02:43.922Z,15.13
2023-02-12T05:05:11.688Z,14.80
2023-02-12T05:07:38.985Z,16.17
2023-02-12T05:10:07.546Z,19.00
2023-02-12T05:12:34.916Z,18.80
2023-02-12T05:15:02.444Z,20.17
2023-02-12T05:17:29.793Z,22.55
2023-02-12T05:19:57.377Z,20.02
2023-02-12T05:22:24.657Z,21.55
2023-02-12T05:24:52.270Z,23.20
2023-02-12T05:27:19.556Z,21.55
2023-02-12T05:29:47.196Z,23.90
2023-02-12T05:32:14.622Z,20.20
2023-02-12T05:34:42.186Z,20.50
2023-02-12T05:37:09.512Z,20.63
2023-02-12T05:39:37.140Z,22.85
2023-02-12T05:42:04.549Z,25.73
2023-02-12T05:44:32.190Z,26.98
2023-02-12T05:46:59.450Z,28.20
2023-02-12T05:49:27.206Z,25.52
2023-02-12T05:51:54.489Z,27.75
2023-02-12T05:54:22.070Z,25.67
2023-02-12T05:56:49.406Z,24.92
2023-02-12T05:59:22.316Z,27.20
2023-02-12T06:01:52.525Z,27.35
2023-02-12T06:04:28.035Z,25.70
2023-02-12T06:06:56.669Z,22.42
2023-02-12T06:09:24.851Z,24.13
2023-02-12T06:11:52.417Z,21.55
2023-02-12T06:14:21.596Z,22.85
2023-02-12T06:16:51.577Z,27.05
2023-02-12T06:19:20.557Z,24.00
2023-02-12T06:21:48.308Z,22.77
2023-02-12T06:24:17.196Z,25.10
2023-02-12T06:26:45.573Z,28.70
2023-02-12T06:29:13.502Z,30.63
2023-02-12T06:31:41.547Z,26.77
2023-02-12T06:34:12.709Z,33.38
2023-02-12T06:36:44.727Z,28.67
2023-02-12T06:39:15.796Z,25.40
2023-02-12T06:41:44.126Z,24.35
2023-02-12T06:44:13.194Z,22.30
2023-02-12T06:46:40.559Z,20.92
2023-02-12T06:49:08.682Z,19.95
2023-02-12T06:51:38.430Z,18.85
2023-02-12T06:54:15.840Z,17.55
2023-02-12T06:56:44.026Z,16.25
2023-02-12T06:59:16.124Z,16.85
2023-02-12T07:01:43.720Z,17.00
2023-02-12T07:04:11.862Z,15.38
2023-02-12T07:06:39.570Z,15.55
2023-02-12T07:09:07.397Z,18.40
2023-02-12T07:11:38.441Z,15.93
2023-02-12T07:14:07.807Z,17.98
2023-02-12T07:16:35.246Z,15.95
2023-02-12T07:19:02.805Z,13.73
2023-02-12T07:21:30.880Z,12.38
2023-02-12T07:23:58.426Z,12.05
2023-02-12T07:26:25.685Z,12.60
2023-02-12T07:28:57.253Z,13.60
2023-02-12T07:31:24.786Z,13.40
2023-02-12T07:33:57.925Z,11.75
2023-02-12T07:36:29.225Z,11.32
2023-02-12T07:38:58.000Z,11.55
2023-02-12T07:41:31.513Z,10.95
2023-02-12T07:44:07.700Z,11.60
2023-02-12T07:46:38.187Z,11.98
2023-02-12T07:49:08.222Z,11.20
2023-02-12T07:51:37.092Z,10.85
2023-02-12T07:54:12.508Z,13.88
2023-02-12T07:56:42.691Z,13.90
2023-02-12T07:59:17.252Z,15.60
2023-02-12T08:01:49.907Z,14.18
2023-02-12T08:04:21.740Z,14.32
2023-02-12T08:06:53.664Z,11.77
2023-02-12T08:09:26.457Z,10.15
2023-02-12T08:11:54.330Z,8.63
2023-02-12T08:14:23.000Z,7.70
2023-02-12T08:16:52.023Z,8.20
2023-02-12T08:22:10.707Z,7.80
2023-02-12T08:24:38.316Z,6.88
2023-02-12T08:27:05.926Z,7.65
2023-02-12T08:29:33.448Z,7.68
2023-02-12T08:32:04.112Z,7.38
2023-02-12T08:34:35.016Z,7.10
2023-02-12T08:37:05.082Z,6.57
2023-02-12T08:39:32.650Z,6.03
2023-02-12T08:42:01.734Z,5.65
2023-02-12T08:44:29.836Z,6.43
2023-02-12T08:46:57.678Z,6.20
2023-02-12T08:49:29.607Z,5.57
2023-02-12T08:51:59.816Z,6.20
2023-02-12T08:54:30.004Z,5.78
2023-02-12T08:57:00.455Z,6.35
2023-02-12T08:59:29.107Z,6.80
2023-02-12T09:01:56.388Z,5.68
2023-02-12T09:04:27.551Z,5.50
2023-02-12T09:06:55.916Z,5.03
2023-02-12T09:09:24.076Z,6.03
2023-02-12T09:11:51.598Z,5.60
2023-02-12T09:14:24.482Z,6.50
2023-02-12T09:16:53.722Z,5.57
2023-02-12T09:19:21.837Z,7.13
2023-02-12T09:21:56.842Z,6.18
2023-02-12T09:24:27.822Z,4.78
2023-02-12T09:26:56.195Z,4.30
2023-02-12T09:29:24.140Z,4.45
2023-02-12T09:31:51.608Z,5.38
2023-02-12T09:34:19.222Z,7.22
2023-02-12T09:36:46.523Z,6.85
2023-02-12T09:39:14.089Z,5.93
2023-02-12T09:42:18.260Z,7.82
2023-02-12T09:45:22.881Z,7.63
2023-02-12T09:48:05.248Z,16.20
2023-02-12T09:50:42.556Z,11.18
2023-02-12T09:53:17.715Z,15.93
2023-02-12T09:55:46.305Z,8.80
2023-02-12T09:58:41.778Z,11.02
2023-02-12T10:01:15.597Z,15.95
2023-02-12T10:03:45.395Z,7.32
2023-02-12T10:06:24.825Z,7.60
2023-02-12T10:09:10.550Z,11.02
2023-02-12T10:12:24.841Z,8.70
2023-02-12T10:15:28.414Z,10.52
2023-02-12T10:18:07.428Z,9.35
2023-02-12T10:20:51.140Z,8.13
2023-02-12T10:23:52.495Z,10.90
2023-02-12T10:26:41.460Z,8.73
2023-02-12T10:29:39.857Z,8.38
2023-02-12T10:32:35.621Z,8.25
2023-02-12T10:35:16.362Z,6.47
2023-02-12T10:38:00.615Z,7.35
2023-02-12T10:40:34.223Z,7.15
2023-02-12T10:43:02.965Z,7.10
2023-02-12T10:45:35.877Z,6.55
2023-02-12T10:48:14.672Z,7.10
2023-02-12T10:51:09.552Z,7.45
2023-02-12T10:53:43.690Z,6.07
2023-02-12T10:56:25.720Z,5.80
2023-02-12T10:58:59.445Z,6.30
2023-02-12T11:01:33.344Z,5.70
2023-02-12T11:04:27.109Z,5.28
2023-02-12T11:07:09.945Z,5.75
2023-02-12T11:09:45.575Z,6.30
2023-02-12T11:12:48.149Z,6.47
2023-02-12T11:15:31.373Z,7.85
2023-02-12T11:18:05.136Z,8.77
2023-02-12T11:20:52.709Z,8.23
2023-02-12T11:23:32.676Z,7.63
2023-02-12T11:26:24.330Z,8.27
2023-02-12T11:28:59.712Z,7.93
2023-02-12T11:31:36.920Z,8.30
2023-02-12T11:34:19.781Z,7.25
2023-02-12T11:36:53.818Z,9.85
2023-02-12T11:39:36.665Z,6.57
2023-02-12T11:42:23.348Z,5.22
2023-02-12T11:44:57.569Z,5.90
2023-02-12T11:47:32.030Z,7.28
2023-02-12T11:50:15.753Z,6.20
2023-02-12T11:52:44.084Z,6.43
2023-02-12T11:55:35.431Z,5.65
2023-02-12T11:58:22.002Z,6.10
2023-02-12T12:01:30.693Z,7.80
2023-02-12T12:04:08.564Z,6.53
2023-02-12T12:06:51.730Z,7.35
2023-02-12T12:09:26.792Z,9.82
2023-02-12T12:12:09.210Z,7.85
2023-02-12T12:15:08.658Z,7.60
2023-02-12T12:18:15.602Z,7.80
2023-02-12T12:20:57.626Z,6.57
2023-02-12T12:23:52.138Z,7.40
2023-02-12T12:26:34.586Z,8.32
2023-02-12T12:29:48.431Z,5.65
2023-02-12T12:32:21.381Z,10.18
2023-02-12T12:34:49.167Z,9.05
2023-02-12T12:37:28.198Z,9.25
2023-02-12T12:40:22.340Z,6.78
2023-02-12T12:43:41.146Z,9.38
2023-02-12T12:46:44.539Z,7.63
2023-02-12T12:49:34.821Z,7.43
2023-02-12T12:52:20.455Z,10.80
2023-02-12T12:54:53.480Z,7.75
2023-02-12T12:58:13.304Z,6.72
2023-02-12T13:00:49.414Z,5.38
2023-02-12T13:03:43.104Z,5.65
2023-02-12T13:06:32.148Z,5.68
2023-02-12T13:09:15.696Z,9.10
2023-02-12T13:12:24.183Z,8.60
2023-02-12T13:15:06.431Z,6.53
2023-02-12T13:18:03.951Z,7.47
2023-02-12T13:20:46.735Z,7.88
2023-02-12T13:23:41.763Z,8.20
2023-02-12T13:26:58.184Z,7.45
2023-02-12T13:29:34.662Z,6.85
2023-02-12T13:33:11.667Z,7.30
2023-02-12T13:35:47.549Z,7.95
2023-02-12T13:38:24.022Z,6.35
2023-02-12T13:41:04.868Z,5.75
2023-02-12T13:43:56.740Z,6.95
2023-02-12T13:46:47.114Z,7.13
2023-02-12T13:49:41.542Z,8.52
2023-02-12T13:52:50.480Z,8.63
2023-02-12T13:55:51.456Z,10.30
2023-02-12T13:58:39.379Z,10.38
2023-02-12T14:01:47.456Z,7.25
2023-02-12T14:04:20.955Z,7.07
2023-02-12T14:07:01.313Z,6.57
2023-02-12T14:09:40.941Z,8.13
2023-02-12T14:12:34.471Z,7.78
2023-02-12T14:15:25.936Z,7.82
2023-02-12T14:18:07.204Z,7.10
2023-02-12T14:20:36.995Z,8.40
2023-02-12T14:23:27.978Z,8.68
2023-02-12T14:26:05.090Z,13.02
2023-02-12T14:28:52.992Z,11.80
2023-02-12T14:31:20.835Z,10.68
2023-02-12T14:34:16.717Z,11.55
2023-02-12T14:37:09.128Z,12.35
2023-02-12T14:39:36.736Z,12.40
2023-02-12T14:42:09.527Z,9.88
2023-02-12T14:44:45.394Z,8.73
2023-02-12T14:47:14.739Z,10.18
2023-02-12T14:49:55.796Z,10.10
2023-02-12T14:52:32.494Z,9.75
2023-02-12T14:55:18.935Z,8.85
2023-02-12T14:57:46.998Z,9.85
2023-02-12T15:00:17.425Z,10.07
2023-02-12T15:03:12.706Z,10.82
2023-02-12T15:05:49.925Z,12.93
2023-02-12T15:08:37.377Z,12.85
2023-02-12T15:11:49.175Z,10.52
2023-02-12T15:14:24.861Z,17.88
2023-02-12T15:17:16.689Z,18.38
2023-02-12T15:19:56.191Z,23.27
2023-02-12T15:22:33.189Z,23.92
2023-02-12T15:25:30.386Z,24.33
2023-02-12T15:28:02.885Z,24.00
2023-02-12T15:30:35.683Z,18.40
2023-02-12T15:33:07.840Z,21.60
2023-02-12T15:35:40.011Z,20.92
2023-02-12T15:38:08.507Z,18.55
2023-02-12T15:40:35.926Z,15.95
2023-02-12T15:43:07.618Z,18.83
2023-02-12T15:45:36.991Z,19.38
2023-02-12T15:48:15.979Z,21.15
2023-02-12T15:51:16.463Z,24.50
2023-02-12T15:53:45.008Z,26.48
2023-02-12T15:56:20.646Z,25.38
2023-02-12T15:58:58.190Z,22.40
2023-02-12T16:01:30.211Z,22.42
2023-02-12T16:04:05.374Z,18.67
2023-02-12T16:06:36.882Z,18.90
2023-02-12T16:09:17.548Z,21.70
2023-02-12T16:11:48.543Z,21.60
2023-02-12T16:14:54.440Z,21.70
2023-02-12T16:17:34.749Z,22.42
2023-02-12T16:20:25.713Z,21.85
2023-02-12T16:22:54.465Z,19.42
2023-02-12T16:25:35.647Z,18.02
2023-02-12T16:28:22.593Z,18.02
2023-02-12T16:30:53.303Z,22.65
2023-02-12T16:33:45.041Z,18.98
2023-02-12T16:36:22.619Z,21.98
2023-02-12T16:38:57.011Z,19.98
2023-02-12T16:41:31.290Z,20.73
2023-02-12T16:44:01.300Z,22.27
2023-02-12T16:46:32.817Z,22.17
2023-02-12T16:49:02.564Z,19.77
2023-02-12T16:51:35.315Z,27.08
2023-02-12T16:54:26.190Z,39.50
2023-02-12T16:56:53.890Z,44.25
2023-02-12T16:59:21.260Z,40.38
2023-02-12T17:02:12.767Z,37.05
2023-02-12T17:04:41.155Z,38.72
2023-02-12T17:07:31.136Z,36.60
2023-02-12T17:09:58.484Z,38.42
2023-02-12T17:12:27.403Z,38.65
2023-02-12T17:14:55.948Z,36.63
2023-02-12T17:17:23.755Z,31.42
2023-02-12T17:19:53.268Z,32.78
2023-02-12T17:22:26.368Z,34.97
2023-02-12T17:24:54.874Z,35.08
2023-02-12T17:27:22.575Z,30.60
2023-02-12T17:29:49.934Z,27.98
2023-02-12T17:32:17.550Z,33.08
2023-02-12T17:34:48.575Z,34.78
2023-02-12T17:37:18.290Z,33.40
2023-02-12T17:39:45.730Z,32.58
2023-02-12T17:42:13.478Z,32.88
2023-02-12T17:44:41.668Z,33.30
2023-02-12T17:47:09.415Z,32.65
2023-02-12T17:49:38.716Z,30.80
2023-02-12T17:52:07.480Z,27.88
2023-02-12T17:54:35.056Z,31.10
2023-02-12T17:57:03.381Z,31.05
2023-02-12T17:59:30.902Z,30.95
2023-02-12T18:01:59.241Z,30.90
2023-02-12T18:04:26.645Z,30.33
2023-02-12T18:06:56.209Z,30.63
2023-02-12T18:09:23.573Z,28.80
2023-02-12T18:11:51.202Z,28.35
2023-02-12T18:14:18.506Z,29.95
2023-02-12T18:16:46.391Z,30.42
2023-02-12T18:19:13.849Z,29.38
2023-02-12T18:21:42.041Z,29.88
2023-02-12T18:24:09.315Z,32.20
2023-02-12T18:26:37.104Z,32.17
2023-02-12T18:29:04.517Z,30.35
2023-02-12T18:31:32.426Z,29.50
2023-02-12T18:33:59.792Z,33.92
2023-02-12T18:36:27.651Z,30.33
2023-02-12T18:38:55.006Z,34.72
2023-02-12T18:41:26.905Z,32.47
2023-02-12T18:43:54.927Z,35.20
2023-02-12T18:46:27.824Z,34.85
2023-02-12T18:48:55.946Z,32.78
2023-02-12T18:51:27.916Z,30.83
2023-02-12T18:54:02.844Z,33.50
2023-02-12T18:56:34.196Z,33.63
2023-02-12T18:59:05.498Z,34.13
2023-02-12T19:01:35.688Z,36.10
2023-02-12T19:04:06.288Z,34.80
2023-02-12T19:06:42.640Z,36.58
2023-02-12T19:09:13.429Z,37.00
2023-02-12T19:11:41.041Z,39.83
2023-02-12T19:14:08.380Z,39.15
2023-02-12T19:16:37.433Z,38.65
2023-02-12T19:19:04.821Z,38.42
2023-02-12T19:21:32.559Z,39.65
2023-02-12T19:24:02.818Z,39.20
2023-02-12T19:26:32.587Z,36.92
2023-02-12T19:29:01.196Z,37.63
2023-02-12T19:31:36.766Z,40.78
2023-02-12T19:34:17.091Z,38.85
2023-02-12T19:36:46.306Z,37.13
2023-02-12T19:39:16.946Z,38.20
2023-02-12T19:41:47.006Z,39.92
2023-02-12T19:44:22.041Z,41.15
2023-02-12T19:46:50.686Z,39.65
2023-02-12T19:49:27.589Z,40.03
2023-02-12T19:51:55.667Z,38.22
2023-02-12T19:54:24.248Z,42.88
2023-02-12T19:56:55.400Z,41.63
2023-02-12T19:59:25.317Z,42.67
2023-02-12T20:01:53.926Z,44.67
2023-02-12T20:04:24.432Z,45.03
2023-02-12T20:06:52.578Z,46.58
2023-02-12T20:09:22.532Z,47.47
2023-02-12T20:11:50.626Z,47.78
2023-02-12T20:14:20.958Z,43.38
2023-02-12T20:16:49.996Z,47.33
2023-02-12T20:19:23.802Z,45.15
2023-02-12T20:21:55.378Z,45.65
2023-02-12T20:24:26.563Z,46.97
2023-02-12T20:26:55.036Z,46.63
2023-02-12T20:29:23.265Z,46.30
2023-02-12T20:31:51.262Z,48.20
2023-02-12T20:34:20.676Z,46.67
2023-02-12T20:36:48.904Z,51.10
2023-02-12T20:39:20.080Z,49.72
2023-02-12T20:41:49.066Z,51.70
2023-02-12T20:44:21.483Z,44.75
2023-02-12T20:46:55.896Z,48.28
2023-02-12T20:49:25.598Z,52.63
2023-02-12T20:51:53.214Z,50.97
2023-02-12T20:54:21.267Z,52.67
2023-02-12T20:56:50.777Z,46.80
2023-02-12T20:59:20.351Z,51.95
2023-02-12T21:01:48.109Z,52.28
2023-02-12T21:04:19.291Z,49.15
2023-02-12T21:06:48.599Z,53.40
2023-02-12T21:09:16.502Z,51.53
2023-02-12T21:11:45.928Z,47.03
2023-02-12T21:14:23.869Z,50.40
2023-02-12T21:16:54.445Z,52.80
2023-02-12T21:19:23.333Z,51.65
2023-02-12T21:21:50.961Z,50.72
2023-02-12T21:24:23.172Z,49.53
2023-02-12T21:26:52.553Z,54.92
2023-02-12T21:29:21.257Z,51.72
2023-02-12T21:31:51.363Z,52.38
2023-02-12T21:34:23.209Z,51.90
2023-02-12T21:36:55.348Z,50.63
2023-02-12T21:39:28.618Z,52.55
2023-02-12T21:42:03.057Z,56.90
2023-02-12T21:44:35.362Z,57.95
2023-02-12T21:47:03.195Z,60.50
2023-02-12T21:49:30.887Z,63.20
2023-02-12T21:52:02.425Z,67.10
2023-02-12T21:54:30.870Z,66.60
2023-02-12T21:56:59.498Z,68.30
2023-02-12T21:59:30.717Z,68.57
2023-02-12T22:02:00.767Z,81.45
2023-02-12T22:04:29.337Z,85.90
2023-02-12T22:06:58.122Z,89.28
2023-02-12T22:09:26.179Z,77.15
2023-02-12T22:11:53.605Z,70.55
2023-02-12T22:14:22.606Z,66.85
2023-02-12T22:16:50.482Z,63.00
2023-02-12T22:19:18.322Z,60.72
2023-02-12T22:21:45.697Z,57.42
2023-02-12T22:24:16.438Z,59.55
2023-02-12T22:26:45.028Z,53.05
2023-02-12T22:29:15.839Z,53.95
2023-02-12T22:31:46.424Z,51.42
2023-02-12T22:34:17.948Z,51.95
2023-02-12T22:36:45.764Z,52.25
2023-02-12T22:39:14.969Z,53.80
2023-02-12T22:41:42.700Z,52.63
2023-02-12T22:44:13.183Z,53.97
2023-02-12T22:46:43.092Z,51.17
2023-02-12T22:49:10.923Z,53.55
2023-02-12T22:51:39.795Z,52.38
2023-02-12T22:54:12.258Z,47.70
2023-02-12T22:56:39.666Z,53.03
2023-02-12T22:59:07.590Z,50.33
2023-02-12T23:01:34.932Z,52.20
2023-02-12T23:04:02.614Z,52.83
2023-02-12T23:06:31.931Z,53.03
2023-02-12T23:09:03.890Z,52.17
2023-02-12T23:11:33.400Z,52.45
2023-02-12T23:14:01.341Z,53.58
2023-02-12T23:16:29.357Z,53.45
2023-02-12T23:18:59.318Z,50.78
2023-02-12T23:21:28.945Z,50.65
2023-02-12T23:23:59.265Z,49.92
2023-02-12T23:26:28.094Z,54.83
2023-02-12T23:28:56.993Z,52.45
2023-02-12T23:31:25.432Z,53.90
2023-02-12T23:33:53.097Z,53.55
2023-02-12T23:36:20.541Z,51.63
2023-02-12T23:38:48.116Z,49.55
2023-02-12T23:41:15.363Z,51.70
2023-02-12T23:43:42.955Z,52.72
2023-02-12T23:46:10.366Z,53.50
2023-02-12T23:48:38.015Z,53.78
2023-02-12T23:51:05.575Z,56.35
2023-02-12T23:53:33.318Z,54.47
2023-02-12T23:56:00.601Z,56.78
2023-02-12T23:58:28.217Z,52.90
